Time;durP1;ratioP1;P1;durP2;ratioP2;P2;SDS_P1;SDS_P2;PMS_P1;PMS_P2;Temp;Humidity;BMP_temperature;BMP_pressure;BME280_temperature;BME280_humidity;BME280_pressure;Samples;Min_cycle;Max_cycle;Signal;HPM_P1;HPM_P2
2021/12/14 00:01:23;;;;;;;;;;;;;;;9.55;76.21;101324.78;10275691;28;20051;-67
2021/12/14 00:06:25;;;;;;;7.78;6.88;;;;;;;9.55;75.95;101324.78;10265954;28;19921;-67
2021/12/14 00:16:41;;;;;;;7.68;6.88;;;;;;;9.45;76.93;101326.25;10279471;28;20117;-67
2021/12/14 00:21:49;;;;;;;8.13;7.20;;;;;;;9.44;77.14;101321.88;10280371;28;20051;-67
2021/12/14 00:26:58;;;;;;;9.80;8.00;;;;;;;9.43;77.30;101314.88;10281863;28;20055;-67
2021/12/14 00:32:03;;;;;;;10.45;7.88;;;;;;;9.44;77.73;101313.91;10284682;28;20150;-66
2021/12/14 00:37:16;;;;;;;9.40;8.40;;;;;;;9.43;78.20;101314.00;10248818;28;20058;-67
2021/12/14 00:42:18;;;;;;;13.07;9.00;;;;;;;9.40;78.84;101304.44;10266064;28;20131;-67
2021/12/14 00:47:20;;;;;;;10.18;9.15;;;;;;;9.38;78.96;101303.66;10266566;28;20072;-67
2021/12/14 00:52:22;;;;;;;12.07;8.82;;;;;;;9.34;79.67;101299.47;10248249;28;20051;-66
2021/12/14 00:57:23;;;;;;;9.80;8.32;;;;;;;9.38;79.69;101304.53;10270349;28;20054;-66
2021/12/14 01:02:25;;;;;;;10.55;9.07;;;;;;;9.39;79.86;101310.69;10268152;28;20105;-68
2021/12/14 01:07:30;;;;;;;10.02;8.95;;;;;;;9.43;79.80;101309.56;10264954;28;20046;-67
2021/12/14 01:12:43;;;;;;;12.38;10.35;;;;;;;9.38;79.86;101315.16;10286861;28;20218;-67
2021/12/14 01:18:01;;;;;;;12.27;10.95;;;;;;;9.37;79.88;101315.25;10281870;23;21364;-62
2021/12/14 01:23:13;;;;;;;10.77;9.68;;;;;;;9.38;80.25;101322.25;10288524;28;20447;-62
2021/12/14 01:28:20;;;;;;;10.45;9.38;;;;;;;9.39;80.50;101318.66;10282664;28;20133;-62
2021/12/14 01:33:24;;;;;;;12.55;11.15;;;;;;;9.38;80.42;101330.22;10272279;28;20051;-62
2021/12/14 01:43:41;;;;;;;11.00;9.85;;;;;;;9.45;80.36;101333.38;10272373;28;20489;-61
2021/12/14 01:48:42;;;;;;;11.20;9.82;;;;;;;9.45;80.30;101328.91;10272721;28;20488;-61
2021/12/14 01:53:48;;;;;;;11.95;10.55;;;;;;;9.47;80.06;101337.69;10272423;28;20492;-61
2021/12/14 01:59:07;;;;;;;11.23;10.07;;;;;;;9.46;80.31;101329.78;10248729;28;20061;-62
2021/12/14 02:04:14;;;;;;;13.32;10.18;;;;;;;9.43;80.27;101311.34;10271698;28;20061;-60
2021/12/14 02:09:17;;;;;;;11.77;9.80;;;;;;;9.48;80.36;101328.72;10272885;28;20138;-62
2021/12/14 02:14:20;;;;;;;10.60;9.52;;;;;;;9.45;80.28;101323.59;10283481;28;20146;-62
2021/12/14 02:19:22;;;;;;;11.05;9.93;;;;;;;9.52;80.21;101340.91;10252412;28;20050;-62
2021/12/14 02:24:26;;;;;;;12.50;9.20;;;;;;;9.51;80.17;101325.06;10270392;28;20330;-61
2021/12/14 02:29:36;;;;;;;11.38;10.18;;;;;;;9.40;80.36;101309.75;10258179;28;20050;-61
2021/12/14 02:35:14;;;;;;;12.02;9.60;;;;;;;9.50;80.61;101316.22;10271463;28;20047;-63
2021/12/14 02:40:32;;;;;;;11.57;10.38;;;;;;;9.41;80.39;101300.81;10229485;28;20059;-63
2021/12/14 02:45:34;;;;;;;10.93;9.93;;;;;;;9.36;80.58;101309.06;10270440;28;20051;-62
2021/12/14 02:50:36;;;;;;;11.18;9.60;;;;;;;9.17;80.99;101288.03;10270007;28;20473;-62
2021/12/14 02:55:38;;;;;;;12.93;11.63;;;;;;;9.17;81.12;101298.66;10270543;28;20555;-62
2021/12/14 03:00:44;;;;;;;12.40;11.02;;;;;;;9.12;81.57;101299.88;10270487;28;20134;-62
2021/12/14 03:05:49;;;;;;;12.00;10.80;;;;;;;9.08;81.95;101299.16;10270643;28;20050;-63
2021/12/14 03:11:09;;;;;;;12.95;11.38;;;;;;;9.06;82.11;101289.59;10254173;28;20042;-63
2021/12/14 03:16:19;;;;;;;12.18;10.88;;;;;;;8.93;82.29;101268.19;10273818;28;20141;-62
2021/12/14 03:21:24;;;;;;;13.30;10.68;;;;;;;8.96;82.75;101275.97;10267715;28;20125;-62
2021/12/14 03:26:29;;;;;;;12.73;11.52;;;;;;;8.81;83.63;101267.97;10268631;28;20125;-63
2021/12/14 03:31:34;;;;;;;12.90;11.10;;;;;;;8.84;83.45;101262.47;10266548;28;20046;-63
2021/12/14 03:36:44;;;;;;;17.88;12.43;;;;;;;8.92;83.41;101262.03;10269738;28;20038;-62
2021/12/14 03:42:06;;;;;;;14.75;12.90;;;;;;;8.91;83.23;101270.09;10267173;28;20043;-63
2021/12/14 03:47:13;;;;;;;15.75;12.73;;;;;;;8.85;83.83;101273.94;10268880;28;20501;-62
2021/12/14 03:52:21;;;;;;;15.43;13.48;;;;;;;8.83;83.99;101262.56;10268544;28;20042;-62
2021/12/14 03:57:23;;;;;;;14.90;12.82;;;;;;;8.81;84.03;101254.69;10268320;28;20047;-63
2021/12/14 04:02:25;;;;;;;16.92;14.05;;;;;;;8.72;84.37;101249.91;10266864;28;20416;-60
2021/12/14 04:07:27;;;;;;;15.82;14.02;;;;;;;8.81;83.96;101254.69;10267579;28;20477;-60
2021/12/14 04:12:28;;;;;;;14.75;13.27;;;;;;;8.75;83.94;101219.66;10277638;28;20061;-62
2021/12/14 04:17:31;;;;;;;15.32;13.57;;;;;;;8.77;83.90;101221.28;10267924;28;20047;-62
2021/12/14 04:22:33;;;;;;;14.30;12.80;;;;;;;8.76;84.47;101224.88;10247641;28;20125;-61
2021/12/14 04:27:36;;;;;;;15.93;14.25;;;;;;;8.49;85.39;101228.16;10249486;28;20057;-62
2021/12/14 04:32:38;;;;;;;15.57;13.27;;;;;;;8.53;85.75;101217.34;10269874;28;20050;-62
2021/12/14 04:37:42;;;;;;;17.58;14.15;;;;;;;8.46;86.19;101188.53;10249806;28;20050;-61
2021/12/14 04:53:44;;;;;;;17.90;15.82;;;;;;;8.39;87.13;101168.56;10274475;28;20146;-61
2021/12/14 04:58:54;;;;;;;20.40;17.15;;;;;;;8.44;87.16;101171.84;10256796;28;20062;-61
2021/12/14 05:04:03;;;;;;;20.48;17.75;;;;;;;8.39;87.21;101173.88;10275593;28;20047;-61
2021/12/14 05:09:27;;;;;;;21.05;17.17;;;;;;;8.52;86.91;101174.06;10273343;28;20118;-62
2021/12/14 05:14:30;;;;;;;18.63;16.63;;;;;;;8.52;86.68;101175.88;10285121;28;20050;-62
2021/12/14 05:19:34;;;;;;;22.63;17.75;;;;;;;8.53;86.97;101185.50;10273858;28;20053;-62
2021/12/14 05:24:41;;;;;;;20.90;17.02;;;;;;;8.46;87.06;101175.25;10244009;28;20153;-62
2021/12/14 05:29:43;;;;;;;22.30;18.13;;;;;;;8.59;86.61;101180.72;10273101;28;20244;-62
2021/12/14 05:34:49;;;;;;;20.98;18.02;;;;;;;8.62;86.41;101169.94;10272010;28;20066;-62
2021/12/14 05:40:01;;;;;;;20.55;18.23;;;;;;;8.42;86.24;101144.53;10244532;28;20062;-62
2021/12/14 05:45:09;;;;;;;21.92;17.52;;;;;;;8.56;86.20;101177.41;10272790;28;20616;-63
2021/12/14 05:50:18;;;;;;;21.58;18.95;;;;;;;8.68;86.03;101192.63;10272781;28;20134;-63
2021/12/14 05:55:24;;;;;;;25.17;19.25;;;;;;;8.69;86.02;101191.66;10253101;28;22013;-62
2021/12/14 06:00:29;;;;;;;26.08;19.70;;;;;;;8.71;85.65;101186.25;10251307;28;20082;-64
2021/12/14 06:05:31;;;;;;;21.33;18.75;;;;;;;8.77;85.72;101207.16;10254326;28;20074;-63
2021/12/14 06:10:32;;;;;;;25.73;20.02;;;;;;;8.77;85.57;101204.50;10250562;28;20046;-61
2021/12/14 06:15:36;;;;;;;25.20;20.70;;;;;;;8.71;86.01;101226.94;10247767;28;20054;-63
2021/12/14 06:20:42;;;;;;;24.83;20.42;;;;;;;8.64;85.99;101228.22;10253759;28;20358;-64
2021/12/14 06:25:44;;;;;;;23.55;19.30;;;;;;;8.56;86.15;101222.53;10251602;28;20051;-62
2021/12/14 06:30:46;;;;;;;26.20;21.50;;;;;;;8.58;85.25;101210.00;10249904;28;20055;-61
2021/12/14 06:35:51;;;;;;;24.52;20.77;;;;;;;8.79;85.42;101237.97;10253492;28;20065;-61
2021/12/14 06:41:13;;;;;;;23.52;20.38;;;;;;;8.85;85.06;101223.50;10234538;28;20520;-61
2021/12/14 06:46:28;;;;;;;27.25;22.23;;;;;;;8.71;84.82;101211.03;10239026;28;20189;-61
2021/12/14 06:51:42;;;;;;;24.63;21.38;;;;;;;8.68;85.38;101232.44;10253887;28;20065;-61
2021/12/14 06:56:48;;;;;;;24.33;19.40;;;;;;;8.75;86.67;101235.56;10253011;28;20051;-60
2021/12/14 07:02:08;;;;;;;24.90;20.60;;;;;;;8.69;86.64;101243.91;10250536;28;20101;-60
2021/12/14 07:07:12;;;;;;;22.20;19.50;;;;;;;8.70;85.87;101270.34;10249362;28;20051;-61
2021/12/14 07:12:18;;;;;;;26.10;20.43;;;;;;;8.64;85.86;101252.13;10252235;28;20055;-62
2021/12/14 07:17:42;;;;;;;25.48;20.90;;;;;;;8.52;86.71;101253.66;10235760;28;20121;-61
2021/12/14 07:22:46;;;;;;;24.43;20.53;;;;;;;8.54;86.66;101245.63;10253916;28;20122;-64
2021/12/14 07:28:15;;;;;;;23.93;19.53;;;;;;;8.44;86.65;101248.78;10253582;28;20054;-60
2021/12/14 07:33:26;;;;;;;25.90;21.20;;;;;;;8.36;87.73;101248.34;10252629;28;20290;-59
2021/12/14 07:38:35;;;;;;;25.10;20.00;;;;;;;8.40;87.68;101257.81;10230949;28;20097;-60
2021/12/14 07:43:43;;;;;;;23.30;19.17;;;;;;;8.60;87.11;101254.09;10249865;28;20066;-60
2021/12/14 07:48:50;;;;;;;23.38;20.20;;;;;;;8.52;86.65;101248.34;10236130;28;20683;-60
2021/12/14 07:54:20;;;;;;;23.15;20.25;;;;;;;8.49;86.54;101238.75;10255868;28;20413;-63
2021/12/14 07:59:24;;;;;;;25.83;20.67;;;;;;;8.39;86.42;101245.50;10247931;28;20140;-61
2021/12/14 08:04:33;;;;;;;25.55;21.10;;;;;;;8.23;87.39;101242.00;10254223;28;20065;-60
2021/12/14 08:09:49;;;;;;;22.17;18.83;;;;;;;8.27;87.81;101248.81;10252633;28;20062;-61
2021/12/14 08:15:07;;;;;;;23.58;20.95;;;;;;;8.32;87.40;101252.09;10253299;28;20475;-61
2021/12/14 08:20:19;;;;;;;24.73;21.17;;;;;;;8.22;87.70;101251.72;10249437;28;20142;-61
2021/12/14 08:25:29;;;;;;;24.20;20.88;;;;;;;8.31;87.29;101267.13;10251800;28;20104;-61
2021/12/14 08:30:34;;;;;;;24.07;20.13;;;;;;;8.33;87.02;101261.75;10250291;28;20062;-60
2021/12/14 08:35:41;;;;;;;28.88;20.92;;;;;;;8.36;87.03;101274.00;10251843;28;20061;-62
2021/12/14 08:40:48;;;;;;;25.27;21.95;;;;;;;8.30;86.71;101275.19;10250450;28;20138;-60
2021/12/14 08:46:00;;;;;;;23.98;19.77;;;;;;;8.30;86.34;101285.78;10246265;28;20042;-60
2021/12/14 08:51:14;;;;;;;23.95;20.85;;;;;;;8.38;86.73;101288.91;10249371;28;20464;-60
2021/12/14 08:56:18;;;;;;;23.73;21.20;;;;;;;8.35;85.75;101281.09;10233687;28;20497;-60
2021/12/14 09:01:25;;;;;;;24.73;21.70;;;;;;;8.31;86.62;101298.97;10249502;28;20042;-59
2021/12/14 09:06:34;;;;;;;26.48;21.08;;;;;;;8.32;86.75;101294.53;10232205;28;21073;-61
2021/12/14 09:11:46;;;;;;;26.58;23.02;;;;;;;8.39;86.88;101293.28;10251170;28;20059;-63
2021/12/14 09:16:54;;;;;;;27.08;22.73;;;;;;;8.36;86.85;101301.41;10250504;28;20042;-62
2021/12/14 09:21:58;;;;;;;26.63;22.77;;;;;;;8.39;87.09;101310.97;10248852;28;20106;-62
2021/12/14 09:27:04;;;;;;;27.67;24.27;;;;;;;8.37;87.37;101323.47;10251934;28;20422;-62
2021/12/14 09:32:10;;;;;;;30.25;23.73;;;;;;;8.47;86.96;101325.56;10255233;28;20057;-60
2021/12/14 09:37:13;;;;;;;25.88;22.98;;;;;;;8.38;87.65;101336.66;10238332;28;20061;-60
2021/12/14 09:42:22;;;;;;;28.73;23.10;;;;;;;8.51;87.31;101314.78;10260053;28;20137;-60
2021/12/14 09:47:29;;;;;;;26.38;23.40;;;;;;;8.64;87.13;101331.75;10238437;28;20135;-61
2021/12/14 09:52:36;;;;;;;27.70;24.05;;;;;;;8.61;87.19;101314.19;10260223;28;20121;-61
2021/12/14 09:57:43;;;;;;;29.67;24.83;;;;;;;8.61;87.07;101305.38;10257568;28;20117;-61
2021/12/14 10:02:46;;;;;;;30.80;24.85;;;;;;;8.70;87.26;101326.09;10258244;28;20057;-62
2021/12/14 10:07:49;;;;;;;28.85;23.92;;;;;;;8.66;87.45;101336.03;10239250;28;20097;-61
2021/12/14 10:12:54;;;;;;;29.65;24.00;;;;;;;8.34;87.79;101292.66;10259280;28;20127;-61
2021/12/14 10:18:01;;;;;;;30.35;24.80;;;;;;;8.42;88.10;101314.34;10240707;28;20109;-61
2021/12/14 10:23:07;;;;;;;31.08;24.65;;;;;;;8.38;88.71;101294.22;10256638;28;20062;-65
2021/12/14 10:28:09;;;;;;;31.05;24.67;;;;;;;8.35;88.99;101294.38;10259023;28;20050;-61
2021/12/14 10:33:11;;;;;;;30.35;23.92;;;;;;;8.55;88.23;101300.41;10242260;28;20065;-61
2021/12/14 10:38:25;;;;;;;29.20;22.02;;;;;;;8.51;87.62;101299.72;10247858;28;20146;-60
2021/12/14 10:43:27;;;;;;;26.65;21.90;;;;;;;8.57;87.22;101314.44;10277652;28;20078;-60
2021/12/14 10:48:37;;;;;;;26.25;21.50;;;;;;;8.60;87.51;101308.97;10277669;28;20128;-61
2021/12/14 10:53:42;;;;;;;29.08;23.13;;;;;;;8.48;87.46;101318.47;10260745;28;20065;-62
2021/12/14 10:59:06;;;;;;;25.92;21.65;;;;;;;8.40;87.61;101302.94;10260080;28;20069;-62
2021/12/14 11:04:12;;;;;;;25.85;21.20;;;;;;;8.59;87.37;101312.59;10262126;28;20454;-62
2021/12/14 11:09:45;;;;;;;27.88;22.60;;;;;;;8.54;86.92;101296.03;10260510;28;20069;-59
2021/12/14 11:14:50;;;;;;;28.65;23.65;;;;;;;8.59;87.04;101312.59;10260961;28;20145;-63
2021/12/14 11:19:57;;;;;;;29.08;22.17;;;;;;;8.62;86.98;101285.88;10260171;28;20145;-62
2021/12/14 11:25:10;;;;;;;27.50;21.92;;;;;;;8.64;87.36;101294.59;10244889;28;20057;-64
2021/12/14 11:30:23;;;;;;;27.35;21.70;;;;;;;8.64;87.17;101286.63;10259641;28;20141;-61
2021/12/14 11:35:28;;;;;;;30.05;22.42;;;;;;;8.62;87.19;101280.56;10244136;28;20055;-63
2021/12/14 11:40:30;;;;;;;;;;;;;;;8.52;87.28;101274.91;10261663;28;20047;-63
2021/12/14 11:45:34;;;;;;;27.70;21.67;;;;;;;8.58;87.10;101279.84;10266628;28;20009;-63
2021/12/14 11:50:39;;;;;;;27.90;22.77;;;;;;;8.47;87.17;101272.50;10266999;28;20133;-63
2021/12/14 11:55:52;;;;;;;30.75;21.50;;;;;;;8.55;87.10;101290.66;10269566;28;20142;-64
2021/12/14 12:00:59;;;;;;;27.05;21.35;;;;;;;8.57;87.39;101286.13;10241714;28;20061;-62
2021/12/14 12:06:15;;;;;;;28.92;21.25;;;;;;;8.64;87.25;101281.31;10263023;28;20599;-61
2021/12/14 12:11:19;;;;;;;26.67;22.48;;;;;;;8.63;86.68;101274.28;10238261;28;20059;-60
2021/12/14 12:16:24;;;;;;;26.35;21.60;;;;;;;8.64;87.22;101270.69;10289060;28;20062;-61
2021/12/14 12:21:28;;;;;;;25.48;20.95;;;;;;;8.66;86.86;101263.50;10292047;28;20693;-62
2021/12/14 12:26:30;;;;;;;24.85;20.00;;;;;;;8.72;87.09;101276.44;10291797;28;20038;-62
2021/12/14 12:31:38;;;;;;;25.67;20.67;;;;;;;8.83;86.29;101267.88;10297861;28;20050;-62
2021/12/14 12:36:42;;;;;;;26.42;19.80;;;;;;;8.90;86.13;101274.53;10295263;28;20050;-63
2021/12/14 12:41:50;;;;;;;22.25;18.13;;;;;;;8.98;85.90;101282.06;10279205;28;20062;-63
2021/12/14 12:47:04;;;;;;;25.35;20.13;;;;;;;8.91;86.17;101275.41;10273751;28;20146;-61
2021/12/14 12:52:12;;;;;;;;;;;;;;;9.01;85.59;101252.69;10261783;28;20074;-62
2021/12/14 12:57:17;;;;;;;23.92;18.90;;;;;;;9.11;85.25;101268.94;10293428;28;20061;-65
2021/12/14 13:02:20;;;;;;;27.80;19.67;;;;;;;9.18;84.77;101263.16;10284256;28;20070;-63
2021/12/14 13:07:54;;;;;;;17.83;14.83;;;;;;;9.15;84.13;101260.69;10279875;28;20110;-63
2021/12/14 13:13:04;;;;;;;29.00;20.90;;;;;;;9.06;85.06;101263.88;10279855;28;20335;-62
2021/12/14 13:18:20;;;;;;;25.83;20.20;;;;;;;9.05;85.62;101277.25;10291321;28;20095;-62
2021/12/14 13:23:37;;;;;;;23.75;19.00;;;;;;;8.99;86.14;101273.13;10282081;28;20053;-61
2021/12/14 13:28:40;;;;;;;24.88;19.65;;;;;;;9.01;85.82;101263.31;10280758;28;20614;-61
2021/12/14 13:33:41;;;;;;;21.63;18.63;;;;;;;9.20;85.15;101287.84;10281297;28;20076;-62
2021/12/14 13:38:43;;;;;;;26.35;18.02;;;;;;;9.24;84.79;101277.03;10286653;28;20054;-62
2021/12/14 13:43:44;;;;;;;21.70;18.75;;;;;;;9.35;84.19;101283.44;10292358;28;20050;-62
2021/12/14 13:48:46;;;;;;;21.20;16.10;;;;;;;9.19;83.12;101275.50;10283396;28;20058;-62
2021/12/14 13:53:48;;;;;;;21.95;15.25;;;;;;;9.01;84.50;101293.38;10297302;28;20093;-64
2021/12/14 13:58:51;;;;;;;20.98;16.00;;;;;;;9.10;84.16;101291.97;10299613;28;20070;-63
2021/12/14 14:04:01;;;;;;;22.27;16.85;;;;;;;9.30;83.58;101324.50;10299148;28;20086;-61
2021/12/14 14:09:22;;;;;;;19.05;14.65;;;;;;;8.89;84.37;101330.38;10299826;28;20065;-62
2021/12/14 14:14:27;;;;;;;18.92;14.77;;;;;;;8.94;84.72;101334.47;10298184;28;20058;-62
2021/12/14 14:19:40;;;;;;;19.67;16.58;;;;;;;9.10;84.94;101336.28;10295435;28;20051;-63
2021/12/14 14:24:55;;;;;;;24.05;18.00;;;;;;;9.32;83.55;101346.53;10296589;28;20277;-62
2021/12/14 14:29:56;;;;;;;18.27;15.00;;;;;;;9.37;82.38;101352.44;10297960;28;20046;-61
2021/12/14 14:35:00;;;;;;;17.13;13.73;;;;;;;9.28;81.52;101347.66;10297439;28;20046;-61
2021/12/14 14:40:07;;;;;;;17.97;14.93;;;;;;;9.40;81.44;101349.59;10273435;28;20066;-62
2021/12/14 14:45:19;;;;;;;16.25;13.32;;;;;;;9.41;80.98;101343.31;10288636;28;20298;-63
2021/12/14 14:50:20;;;;;;;14.65;12.55;;;;;;;9.46;80.59;101359.88;10272760;28;20046;-60
2021/12/14 14:55:55;;;;;;;17.20;12.52;;;;;;;9.46;79.47;101359.88;10289393;28;20046;-61
2021/12/14 15:01:05;;;;;;;13.63;11.20;;;;;;;9.50;79.76;101357.88;10279994;28;20051;-62
2021/12/14 15:06:12;;;;;;;12.82;10.20;;;;;;;9.37;78.29;101357.75;10282178;28;20046;-61
2021/12/14 15:11:27;;;;;;;12.20;10.30;;;;;;;9.43;77.85;101351.22;10273646;28;20054;-60
2021/12/14 15:16:42;;;;;;;11.43;10.00;;;;;;;9.48;77.69;101359.78;10243913;28;20063;-62
2021/12/14 15:22:01;;;;;;;9.97;8.90;;;;;;;9.51;76.66;101370.25;10252544;28;20528;-60
2021/12/14 15:27:36;;;;;;;10.80;8.68;;;;;;;9.40;76.85;101378.84;10251073;28;20283;-60
2021/12/14 15:33:04;;;;;;;10.18;8.07;;;;;;;9.36;76.77;101380.78;10202143;28;20046;-60
2021/12/14 15:38:26;;;;;;;11.00;7.50;;;;;;;9.38;75.84;101375.41;10250426;28;20055;-61
2021/12/14 15:43:37;;;;;;;8.55;7.10;;;;;;;9.41;75.06;101390.31;10249635;28;20053;-60
2021/12/14 15:48:45;;;;;;;8.18;6.20;;;;;;;9.45;74.57;101403.34;10252879;28;20577;-61
2021/12/14 15:53:58;;;;;;;5.95;5.35;;;;;;;9.46;73.58;101399.75;10253012;28;20055;-62
2021/12/14 15:59:09;;;;;;;6.70;5.65;;;;;;;9.49;73.80;101415.50;10251446;28;20145;-61
2021/12/14 16:04:14;;;;;;;7.43;5.75;;;;;;;9.52;73.85;101428.63;10249693;28;20046;-64
2021/12/14 16:09:20;;;;;;;6.82;6.13;;;;;;;9.51;73.00;101424.25;10242342;28;20149;-61
2021/12/14 16:19:47;;;;;;;5.72;5.13;;;;;;;9.50;72.56;101427.88;10248101;28;20779;-61
2021/12/14 16:25:19;;;;;;;6.00;5.10;;;;;;;9.57;72.19;101435.47;10244181;28;20051;-61
2021/12/14 16:30:53;;;;;;;8.93;7.35;;;;;;;9.62;72.46;101431.59;10246586;28;20498;-61
2021/12/14 16:36:01;;;;;;;7.50;6.57;;;;;;;9.65;72.84;101441.19;10226612;28;20517;-62
2021/12/14 16:41:13;;;;;;;7.40;6.50;;;;;;;9.66;72.58;101442.94;10246588;28;20053;-62
2021/12/14 16:46:26;;;;;;;8.35;6.78;;;;;;;9.65;72.37;101443.84;10250734;28;20057;-62
2021/12/14 16:51:28;;;;;;;7.57;5.80;;;;;;;9.59;72.29;101425.59;10254752;28;20059;-61
2021/12/14 16:56:32;;;;;;;8.02;6.93;;;;;;;9.66;72.04;101429.63;10263129;28;20213;-62
2021/12/14 17:01:33;;;;;;;7.55;6.55;;;;;;;9.74;71.93;101432.69;10258145;28;20050;-62
2021/12/14 17:06:36;;;;;;;9.02;7.35;;;;;;;9.64;72.01;101423.56;10258630;28;20050;-61
2021/12/14 17:11:41;;;;;;;10.05;7.82;;;;;;;9.74;71.92;101443.31;10261892;28;20100;-62
2021/12/14 17:16:44;;;;;;;;;;;;;;;9.74;71.69;101451.31;10260686;28;20050;-60
2021/12/14 17:21:56;;;;;;;9.73;8.50;;;;;;;9.67;72.10;101456.13;10243016;28;19930;-60
2021/12/14 17:27:05;;;;;;;10.55;8.38;;;;;;;9.68;72.01;101452.53;10259659;28;20047;-61
2021/12/14 17:32:11;;;;;;;9.32;7.80;;;;;;;9.69;72.16;101456.88;10257857;28;20046;-62
2021/12/14 17:37:22;;;;;;;15.77;11.95;;;;;;;9.60;72.43;101457.41;10259426;28;20043;-63
2021/12/14 17:42:28;;;;;;;22.27;15.25;;;;;;;9.58;74.59;101467.28;10260479;28;20064;-61
2021/12/14 17:47:35;;;;;;;19.00;14.65;;;;;;;9.48;76.05;101482.03;10267564;28;20244;-62
2021/12/14 17:52:44;;;;;;;21.77;16.27;;;;;;;9.45;77.06;101487.53;10257138;28;20069;-61
2021/12/14 17:57:52;;;;;;;24.95;16.55;;;;;;;9.36;77.61;101495.06;10256440;28;20050;-61
2021/12/14 18:03:03;;;;;;;23.50;17.58;;;;;;;9.36;77.73;101478.28;10252619;28;20746;-61
2021/12/14 18:08:13;;;;;;;20.75;18.25;;;;;;;9.31;78.09;101486.50;10249417;28;20050;-63
2021/12/14 18:13:35;;;;;;;26.85;18.88;;;;;;;9.30;78.31;101489.25;10253584;28;20050;-61
2021/12/14 18:24:05;;;;;;;22.02;16.83;;;;;;;9.17;79.15;101487.28;10251632;28;20081;-61
2021/12/14 18:29:11;;;;;;;30.00;18.55;;;;;;;9.24;78.99;101494.91;10252879;28;20051;-64
2021/12/14 18:34:17;;;;;;;22.15;16.98;;;;;;;9.18;78.93;101485.47;10235750;28;20053;-61
2021/12/14 18:39:29;;;;;;;23.33;17.35;;;;;;;9.11;79.53;101484.97;10225554;28;20689;-62
2021/12/14 18:44:32;;;;;;;99.90;71.18;;;;;;;9.07;79.93;101483.41;10243660;28;20506;-63
2021/12/14 18:49:39;;;;;;;38.65;29.23;;;;;;;9.02;80.08;101496.06;10244692;28;20094;-61
2021/12/14 18:54:47;;;;;;;25.88;18.77;;;;;;;8.85;80.26;101479.22;10250389;28;20055;-62
2021/12/14 18:59:54;;;;;;;26.83;18.38;;;;;;;8.82;80.69;101487.38;10253081;28;20133;-62
2021/12/14 19:05:01;;;;;;;27.33;18.85;;;;;;;8.85;80.77;101499.63;10250887;28;20051;-62
2021/12/14 19:10:07;;;;;;;26.13;20.10;;;;;;;8.79;81.12;101495.50;10249682;28;20785;-63
2021/12/14 19:15:18;;;;;;;27.30;19.58;;;;;;;8.83;80.96;101496.22;10248757;28;20126;-61
2021/12/14 19:20:41;;;;;;;27.98;20.80;;;;;;;8.62;81.17;101469.84;10247929;28;20051;-62
2021/12/14 19:25:43;;;;;;;26.30;19.23;;;;;;;8.66;81.48;101494.44;10248481;28;20054;-61
2021/12/14 19:30:48;;;;;;;25.20;20.77;;;;;;;8.71;81.68;101512.75;10249765;28;20679;-63
2021/12/14 19:35:49;;;;;;;28.17;20.73;;;;;;;8.65;81.73;101511.31;10250066;28;20054;-63
2021/12/14 19:40:56;;;;;;;28.77;20.85;;;;;;;8.57;81.81;101500.22;10249572;28;20097;-63
2021/12/14 19:46:04;;;;;;;29.98;21.02;;;;;;;8.50;81.67;101489.09;10228482;28;20055;-63
2021/12/14 19:51:15;;;;;;;30.90;20.52;;;;;;;8.47;82.29;101498.06;10247990;28;20418;-63
2021/12/14 19:56:22;;;;;;;27.73;21.30;;;;;;;8.45;82.75;101502.59;10247561;28;20077;-62
2021/12/14 20:01:25;;;;;;;27.52;20.40;;;;;;;8.41;82.89;101500.16;10247090;28;20126;-62
2021/12/14 20:06:32;;;;;;;25.10;19.70;;;;;;;8.31;83.33;101508.56;10247256;28;20501;-62
2021/12/14 20:11:45;;;;;;;28.58;20.08;;;;;;;8.20;83.54;101502.09;10241341;28;20050;-63
2021/12/14 20:16:49;;;;;;;26.73;19.70;;;;;;;8.16;83.73;101496.06;10247758;28;20049;-61
2021/12/14 20:21:52;;;;;;;27.25;20.27;;;;;;;8.16;83.63;101519.94;10245432;28;20069;-62
2021/12/14 20:26:59;;;;;;;25.45;20.10;;;;;;;8.19;84.23;101521.59;10245297;28;20190;-61
2021/12/14 20:32:09;;;;;;;25.20;18.80;;;;;;;8.19;84.08;101511.00;10245941;28;20058;-61
2021/12/14 20:37:14;;;;;;;28.52;21.38;;;;;;;8.24;83.62;101519.56;10248065;28;20061;-62
2021/12/14 20:42:26;;;;;;;;;;;;;;;8.27;83.32;101522.06;10227304;28;20065;-60
2021/12/14 20:47:36;;;;;;;24.35;18.70;;;;;;;8.16;83.80;101538.50;10248747;28;20013;-62
2021/12/14 20:52:37;;;;;;;24.23;19.23;;;;;;;8.16;83.90;101542.97;10244721;28;20614;-63
2021/12/14 20:58:07;;;;;;;22.88;18.77;;;;;;;8.12;84.08;101543.13;10244833;28;20062;-62
2021/12/14 21:03:08;;;;;;;24.20;18.67;;;;;;;8.03;83.89;101535.63;10242264;28;20085;-62
2021/12/14 21:08:14;;;;;;;23.83;18.33;;;;;;;8.19;83.73;101542.81;10230142;28;20055;-61
2021/12/14 21:13:39;;;;;;;20.42;16.23;;;;;;;8.25;83.78;101559.28;10223857;28;20390;-64
2021/12/14 21:18:40;;;;;;;21.65;17.10;;;;;;;8.11;83.61;101553.81;10244717;28;20054;-62
2021/12/14 21:23:42;;;;;;;23.33;17.60;;;;;;;8.18;83.46;101565.84;10244268;28;20124;-62
2021/12/14 21:28:43;;;;;;;24.45;18.70;;;;;;;8.17;83.57;101571.19;10239525;28;21025;-62
2021/12/14 21:33:49;;;;;;;20.27;16.98;;;;;;;8.24;83.74;101569.97;10226799;28;20502;-62
2021/12/14 21:39:12;;;;;;;23.13;16.75;;;;;;;8.23;83.37;101573.56;10233039;28;20280;-62
2021/12/14 21:44:57;;;;;;;21.10;16.92;;;;;;;8.18;83.18;101562.31;10249060;28;20057;-62
2021/12/14 21:50:03;;;;;;;24.40;18.75;;;;;;;8.07;83.57;101565.50;10250449;28;20714;-63
2021/12/14 21:55:21;;;;;;;23.27;19.08;;;;;;;7.92;84.62;101562.66;10237277;28;20119;-63
2021/12/14 22:00:31;;;;;;;22.83;18.85;;;;;;;7.85;85.11;101560.38;10233285;28;20054;-61
2021/12/14 22:05:34;;;;;;;24.85;18.45;;;;;;;7.90;84.96;101568.97;10236626;28;20047;-61
2021/12/14 22:10:36;;;;;;;24.85;17.95;;;;;;;7.66;85.54;101563.06;10251570;28;20122;-62
2021/12/14 22:15:48;;;;;;;23.52;17.42;;;;;;;7.55;86.08;101569.72;10253265;28;20462;-62
2021/12/14 22:20:52;;;;;;;23.90;17.70;;;;;;;7.76;85.67;101570.50;10254636;28;20046;-62
2021/12/14 22:25:54;;;;;;;29.27;19.67;;;;;;;7.87;85.31;101574.44;10246260;28;20049;-62
2021/12/14 22:30:56;;;;;;;24.08;17.98;;;;;;;7.86;85.29;101586.81;10248719;28;21310;-64
2021/12/14 22:35:58;;;;;;;26.50;19.50;;;;;;;7.82;84.92;101587.03;10272485;28;20050;-62
2021/12/14 22:41:23;;;;;;;23.95;17.73;;;;;;;7.66;85.39;101595.72;10255096;28;20543;-63
2021/12/14 22:46:23;;;;;;;22.02;16.77;;;;;;;7.66;85.44;101584.25;10272885;28;20066;-64
2021/12/14 22:51:25;;;;;;;21.10;17.33;;;;;;;7.49;85.81;101577.97;10272002;28;20057;-64
2021/12/14 22:56:26;;;;;;;21.45;17.48;;;;;;;7.63;85.65;101606.47;10267572;28;20054;-63
2021/12/14 23:01:32;;;;;;;22.23;16.35;;;;;;;7.64;85.25;101584.34;10271867;28;20042;-64
2021/12/14 23:06:35;;;;;;;19.35;15.52;;;;;;;7.58;85.85;101592.53;10280055;28;20063;-64
2021/12/14 23:11:39;;;;;;;19.88;15.07;;;;;;;7.61;85.96;101597.69;10275417;28;20565;-63
2021/12/14 23:16:44;;;;;;;20.23;15.50;;;;;;;7.56;85.83;101586.47;10272862;28;20473;-64
2021/12/14 23:21:47;;;;;;;18.20;16.05;;;;;;;7.55;85.65;101590.91;10252744;28;20452;-63
2021/12/14 23:26:49;;;;;;;20.92;15.35;;;;;;;7.44;86.49;101578.16;10268025;28;20066;-64
2021/12/14 23:31:50;;;;;;;19.25;15.80;;;;;;;7.47;86.38;101594.84;10268138;28;20553;-62
2021/12/14 23:36:53;;;;;;;19.48;14.40;;;;;;;7.51;86.31;101597.28;10268567;28;20071;-61
2021/12/14 23:41:56;;;;;;;19.15;14.38;;;;;;;7.37;86.58;101566.13;10269617;28;20573;-62
2021/12/14 23:52:00;;;;;;;19.17;15.73;;;;;;;7.46;86.60;101579.88;10269978;28;20074;-62
2021/12/14 23:57:02;;;;;;;19.77;14.13;;;;;;;7.53;86.24;101586.63;10249756;28;20042;-61
